NWK1655 YBRM-YPPH
Flight info
| Callsign | NWK1655 |
|---|---|
| Flight time | 2h 12m |
| Altitude | 34000 |
| Route | BRM Q38 PH |
| Aircraft | A320/M-SDE3FGHIRWY/LB1 |
Departure
| Time | 2026-05-06 06:55 |
|---|---|
| Airport | Broome International Airport (YBRM) |
Arrival
| Time | 2026-05-06 09:08 |
|---|---|
| Airport | Perth International Airport (YPPH) |
| Time | Latitude | Longitude | Altitude | Speed | Heading |
|---|---|---|---|---|---|
| 2026-05-06 06:37 | -17.95262 | 122.23332 | 37 ft | 0 kts | 61° |
| 2026-05-06 06:47 | -17.95270 | 122.23317 | 35 ft | 4 kts | 61° |
| 2026-05-06 06:48 | -17.95285 | 122.23294 | 36 ft | 4 kts | 45° |
| 2026-05-06 06:48 | -17.95305 | 122.23277 | 35 ft | 4 kts | 21° |
| 2026-05-06 06:48 | -17.95318 | 122.23272 | 36 ft | 1 kts | 14° |
| 2026-05-06 06:48 | -17.95319 | 122.23272 | 36 ft | 0 kts | 14° |
| 2026-05-06 06:50 | -17.95315 | 122.23273 | 37 ft | 1 kts | 14° |
| 2026-05-06 06:50 | -17.95299 | 122.23277 | 36 ft | 3 kts | 14° |
| 2026-05-06 06:51 | -17.95272 | 122.23284 | 35 ft | 5 kts | 14° |
| 2026-05-06 06:51 | -17.95233 | 122.23294 | 37 ft | 7 kts | 14° |
| 2026-05-06 06:51 | -17.95189 | 122.23321 | 37 ft | 8 kts | 56° |
| 2026-05-06 06:51 | -17.95151 | 122.23369 | 37 ft | 9 kts | 18° |
| 2026-05-06 06:52 | -17.95080 | 122.23392 | 35 ft | 13 kts | 31° |
| 2026-05-06 06:52 | -17.95075 | 122.23491 | 32 ft | 16 kts | 106° |
| 2026-05-06 06:52 | -17.95107 | 122.23613 | 31 ft | 18 kts | 105° |
| 2026-05-06 06:52 | -17.95129 | 122.23701 | 31 ft | 10 kts | 99° |
| 2026-05-06 06:53 | -17.95123 | 122.23775 | 30 ft | 9 kts | 103° |
| 2026-05-06 06:53 | -17.95145 | 122.23760 | 30 ft | 6 kts | 276° |
| 2026-05-06 06:53 | -17.95142 | 122.23747 | 30 ft | 0 kts | 285° |
| 2026-05-06 06:54 | -17.95105 | 122.23603 | 30 ft | 59 kts | 285° |
| 2026-05-06 06:54 | -17.94928 | 122.22934 | 47 ft | 127 kts | 285° |
| 2026-05-06 06:55 | -17.94661 | 122.21942 | 415 ft | 139 kts | 286° |
| 2026-05-06 06:55 | -17.94386 | 122.20955 | 940 ft | 143 kts | 284° |
| 2026-05-06 06:55 | -17.94502 | 122.19941 | 1443 ft | 146 kts | 235° |
| 2026-05-06 06:55 | -17.95307 | 122.19293 | 1908 ft | 152 kts | 199° |
| 2026-05-06 06:56 | -17.96421 | 122.19099 | 2010 ft | 175 kts | 184° |
| 2026-05-06 06:56 | -17.97706 | 122.19046 | 2257 ft | 195 kts | 182° |
| 2026-05-06 06:56 | -17.99135 | 122.19021 | 2608 ft | 215 kts | 181° |
| 2026-05-06 06:56 | -18.00723 | 122.18922 | 2837 ft | 241 kts | 192° |
| 2026-05-06 06:57 | -18.02337 | 122.18269 | 3311 ft | 256 kts | 212° |
| 2026-05-06 06:57 | -18.03841 | 122.17217 | 4072 ft | 262 kts | 214° |
| 2026-05-06 06:57 | -18.05367 | 122.16153 | 4865 ft | 267 kts | 214° |
| 2026-05-06 06:57 | -18.06899 | 122.15086 | 5675 ft | 269 kts | 214° |
| 2026-05-06 06:58 | -18.08479 | 122.14000 | 6455 ft | 272 kts | 213° |
| 2026-05-06 06:58 | -18.10072 | 122.12917 | 7284 ft | 274 kts | 213° |
| 2026-05-06 06:58 | -18.11690 | 122.11818 | 8003 ft | 279 kts | 213° |
| 2026-05-06 06:58 | -18.13332 | 122.10701 | 8723 ft | 283 kts | 213° |
| 2026-05-06 06:59 | -18.14991 | 122.09564 | 9451 ft | 286 kts | 213° |
| 2026-05-06 06:59 | -18.16666 | 122.08417 | 10144 ft | 290 kts | 213° |
| 2026-05-06 06:59 | -18.18411 | 122.07219 | 10409 ft | 310 kts | 213° |
| 2026-05-06 06:59 | -18.20277 | 122.05937 | 10610 ft | 330 kts | 213° |
| 2026-05-06 07:00 | -18.22255 | 122.04577 | 10851 ft | 347 kts | 213° |
| 2026-05-06 07:00 | -18.24296 | 122.03170 | 11345 ft | 354 kts | 213° |
| 2026-05-06 07:00 | -18.26377 | 122.01743 | 11910 ft | 359 kts | 213° |
| 2026-05-06 07:00 | -18.28477 | 122.00297 | 12505 ft | 362 kts | 213° |
| 2026-05-06 07:01 | -18.30598 | 121.98842 | 13108 ft | 365 kts | 213° |
| 2026-05-06 07:01 | -18.32728 | 121.97377 | 13704 ft | 368 kts | 213° |
| 2026-05-06 07:01 | -18.34878 | 121.95893 | 14297 ft | 371 kts | 213° |
| 2026-05-06 07:01 | -18.37047 | 121.94395 | 14855 ft | 374 kts | 213° |
| 2026-05-06 07:02 | -18.39225 | 121.92889 | 15394 ft | 377 kts | 213° |
| 2026-05-06 07:02 | -18.41428 | 121.91368 | 15924 ft | 380 kts | 213° |
| 2026-05-06 07:02 | -18.43643 | 121.89835 | 16446 ft | 383 kts | 213° |
| 2026-05-06 07:02 | -18.45880 | 121.88288 | 16970 ft | 386 kts | 213° |
| 2026-05-06 07:03 | -18.48133 | 121.86733 | 17501 ft | 389 kts | 213° |
| 2026-05-06 07:03 | -18.50407 | 121.85167 | 18026 ft | 392 kts | 213° |
| 2026-05-06 07:03 | -18.52696 | 121.83589 | 18551 ft | 395 kts | 213° |
| 2026-05-06 07:03 | -18.54972 | 121.82018 | 19075 ft | 398 kts | 213° |
| 2026-05-06 07:04 | -18.57296 | 121.80413 | 19597 ft | 401 kts | 213° |
| 2026-05-06 07:04 | -18.59644 | 121.78785 | 20110 ft | 404 kts | 213° |
| 2026-05-06 07:04 | -18.62000 | 121.77149 | 20603 ft | 407 kts | 213° |
| 2026-05-06 07:04 | -18.64380 | 121.75500 | 21057 ft | 410 kts | 213° |
| 2026-05-06 07:05 | -18.66773 | 121.73843 | 21499 ft | 412 kts | 213° |
| 2026-05-06 07:05 | -18.69178 | 121.72181 | 21915 ft | 415 kts | 213° |
| 2026-05-06 07:05 | -18.71601 | 121.70506 | 22318 ft | 418 kts | 213° |
| 2026-05-06 07:05 | -18.74040 | 121.68822 | 22711 ft | 420 kts | 213° |
| 2026-05-06 07:06 | -18.76491 | 121.67131 | 23094 ft | 422 kts | 212° |
| 2026-05-06 07:06 | -18.79100 | 121.65686 | 23461 ft | 425 kts | 202° |
| 2026-05-06 07:06 | -18.81912 | 121.64694 | 23817 ft | 428 kts | 195° |
| 2026-05-06 07:06 | -18.84787 | 121.63850 | 24171 ft | 430 kts | 195° |
| 2026-05-06 07:07 | -18.87674 | 121.63000 | 24518 ft | 432 kts | 196° |
| 2026-05-06 07:07 | -18.90581 | 121.62138 | 24838 ft | 434 kts | 196° |
| 2026-05-06 07:07 | -18.93495 | 121.61268 | 25166 ft | 436 kts | 196° |
| 2026-05-06 07:07 | -18.96384 | 121.60404 | 25476 ft | 438 kts | 196° |
| 2026-05-06 07:08 | -18.99333 | 121.59522 | 25793 ft | 441 kts | 196° |
| 2026-05-06 07:08 | -19.02287 | 121.58638 | 26107 ft | 443 kts | 196° |
| 2026-05-06 07:08 | -19.05256 | 121.57748 | 26410 ft | 445 kts | 196° |
| 2026-05-06 07:08 | -19.08239 | 121.56852 | 26723 ft | 447 kts | 196° |
| 2026-05-06 07:09 | -19.11236 | 121.55955 | 27043 ft | 448 kts | 196° |
| 2026-05-06 07:09 | -19.14232 | 121.55058 | 27463 ft | 447 kts | 196° |
| 2026-05-06 07:09 | -19.17218 | 121.54165 | 27886 ft | 446 kts | 196° |
| 2026-05-06 07:09 | -19.20204 | 121.53274 | 28296 ft | 445 kts | 196° |
| 2026-05-06 07:10 | -19.23183 | 121.52384 | 28701 ft | 444 kts | 196° |
| 2026-05-06 07:10 | -19.26152 | 121.51496 | 29094 ft | 443 kts | 196° |
| 2026-05-06 07:10 | -19.29126 | 121.50607 | 29491 ft | 443 kts | 196° |
| 2026-05-06 07:10 | -19.32050 | 121.49731 | 29876 ft | 442 kts | 196° |
| 2026-05-06 07:11 | -19.35015 | 121.48841 | 30270 ft | 441 kts | 196° |
| 2026-05-06 07:11 | -19.37970 | 121.47955 | 30657 ft | 441 kts | 196° |
| 2026-05-06 07:11 | -19.40922 | 121.47073 | 31038 ft | 440 kts | 196° |
| 2026-05-06 07:11 | -19.43866 | 121.46189 | 31412 ft | 439 kts | 196° |
| 2026-05-06 07:12 | -19.46801 | 121.45304 | 31784 ft | 439 kts | 196° |
| 2026-05-06 07:12 | -19.49736 | 121.44419 | 32153 ft | 438 kts | 196° |
| 2026-05-06 07:12 | -19.52666 | 121.43537 | 32519 ft | 437 kts | 196° |
| 2026-05-06 07:12 | -19.55596 | 121.42654 | 32878 ft | 437 kts | 196° |
| 2026-05-06 07:13 | -19.58515 | 121.41776 | 33233 ft | 436 kts | 196° |
| 2026-05-06 07:13 | -19.61431 | 121.40899 | 33581 ft | 435 kts | 196° |
| 2026-05-06 07:13 | -19.64350 | 121.40022 | 33904 ft | 435 kts | 196° |
| 2026-05-06 07:14 | -19.70221 | 121.38254 | 34011 ft | 445 kts | 196° |
| 2026-05-06 07:14 | -19.76236 | 121.36444 | 34009 ft | 451 kts | 196° |
| 2026-05-06 07:15 | -19.82225 | 121.34568 | 34007 ft | 452 kts | 201° |
| 2026-05-06 07:15 | -19.88115 | 121.32111 | 34009 ft | 452 kts | 201° |
| 2026-05-06 07:16 | -19.93936 | 121.29679 | 34009 ft | 452 kts | 201° |
| 2026-05-06 07:16 | -19.99805 | 121.27223 | 34012 ft | 453 kts | 201° |
| 2026-05-06 07:17 | -20.05675 | 121.24764 | 34014 ft | 453 kts | 201° |
| 2026-05-06 07:17 | -20.11545 | 121.22309 | 34014 ft | 453 kts | 201° |
| 2026-05-06 07:18 | -20.17413 | 121.19846 | 34017 ft | 453 kts | 202° |
| 2026-05-06 07:18 | -20.23243 | 121.17393 | 34021 ft | 453 kts | 201° |
| 2026-05-06 07:19 | -20.29112 | 121.14931 | 34019 ft | 454 kts | 201° |
| 2026-05-06 07:19 | -20.34991 | 121.12455 | 34022 ft | 454 kts | 201° |
| 2026-05-06 07:20 | -20.40860 | 121.09984 | 34023 ft | 454 kts | 201° |
| 2026-05-06 07:20 | -20.46746 | 121.07510 | 34024 ft | 454 kts | 201° |
| 2026-05-06 07:21 | -20.52626 | 121.05030 | 34020 ft | 454 kts | 202° |
| 2026-05-06 07:21 | -20.58512 | 121.02547 | 34024 ft | 454 kts | 202° |
| 2026-05-06 07:22 | -20.64389 | 121.00061 | 34027 ft | 454 kts | 202° |
| 2026-05-06 07:22 | -20.70268 | 120.97580 | 34028 ft | 454 kts | 201° |
| 2026-05-06 07:23 | -20.76154 | 120.95100 | 34029 ft | 454 kts | 202° |
| 2026-05-06 07:23 | -20.81995 | 120.92623 | 34023 ft | 454 kts | 202° |
| 2026-05-06 07:24 | -20.87871 | 120.90126 | 34026 ft | 454 kts | 202° |
| 2026-05-06 07:24 | -20.93752 | 120.87625 | 34029 ft | 454 kts | 202° |
| 2026-05-06 07:25 | -20.99628 | 120.85139 | 34027 ft | 454 kts | 201° |
| 2026-05-06 07:25 | -21.05484 | 120.82659 | 34024 ft | 454 kts | 202° |
| 2026-05-06 07:26 | -21.11362 | 120.80161 | 34025 ft | 454 kts | 202° |
| 2026-05-06 07:26 | -21.17238 | 120.77662 | 34024 ft | 454 kts | 202° |
| 2026-05-06 07:27 | -21.22124 | 120.75587 | 34025 ft | 454 kts | 202° |
| 2026-05-06 07:27 | -21.28008 | 120.73078 | 34022 ft | 455 kts | 202° |
| 2026-05-06 07:28 | -21.33886 | 120.70564 | 34024 ft | 455 kts | 202° |
| 2026-05-06 07:28 | -21.42712 | 120.66794 | 34022 ft | 455 kts | 202° |
| 2026-05-06 07:29 | -21.48591 | 120.64287 | 34027 ft | 455 kts | 202° |
| 2026-05-06 07:29 | -21.54442 | 120.61788 | 34026 ft | 455 kts | 202° |
| 2026-05-06 07:30 | -21.60318 | 120.59266 | 34019 ft | 455 kts | 202° |
| 2026-05-06 07:30 | -21.66211 | 120.56737 | 34017 ft | 455 kts | 202° |
| 2026-05-06 07:31 | -21.72096 | 120.54213 | 34021 ft | 455 kts | 202° |
| 2026-05-06 07:31 | -21.77984 | 120.51688 | 34021 ft | 455 kts | 202° |
| 2026-05-06 07:32 | -21.83869 | 120.49164 | 34026 ft | 455 kts | 202° |
| 2026-05-06 07:32 | -21.89751 | 120.46643 | 34023 ft | 455 kts | 202° |
| 2026-05-06 07:33 | -21.95628 | 120.44103 | 34022 ft | 455 kts | 202° |
| 2026-05-06 07:33 | -22.01470 | 120.41578 | 34023 ft | 455 kts | 202° |
| 2026-05-06 07:34 | -22.07367 | 120.39043 | 34018 ft | 456 kts | 202° |
| 2026-05-06 07:34 | -22.13258 | 120.36511 | 34017 ft | 456 kts | 202° |
| 2026-05-06 07:35 | -22.19144 | 120.33968 | 34021 ft | 456 kts | 202° |
| 2026-05-06 07:35 | -22.25033 | 120.31421 | 34015 ft | 456 kts | 202° |
| 2026-05-06 07:36 | -22.30913 | 120.28869 | 34023 ft | 456 kts | 202° |
| 2026-05-06 07:36 | -22.36802 | 120.26321 | 34021 ft | 456 kts | 202° |
| 2026-05-06 07:37 | -22.42684 | 120.23770 | 34020 ft | 456 kts | 202° |
| 2026-05-06 07:37 | -22.48570 | 120.21214 | 34021 ft | 456 kts | 202° |
| 2026-05-06 07:38 | -22.54420 | 120.18670 | 34020 ft | 456 kts | 202° |
| 2026-05-06 07:38 | -22.60300 | 120.16113 | 34021 ft | 455 kts | 202° |
| 2026-05-06 07:39 | -22.66192 | 120.13554 | 33487 ft | 455 kts | 202° |
| 2026-05-06 07:39 | -22.69099 | 120.12297 | 33659 ft | 440 kts | 208° |
| 2026-05-06 07:39 | -22.71900 | 120.11088 | 33857 ft | 429 kts | 209° |
| 2026-05-06 07:40 | -22.74656 | 120.09891 | 34030 ft | 425 kts | 209° |
| 2026-05-06 07:40 | -22.77397 | 120.08697 | 34038 ft | 423 kts | 209° |
| 2026-05-06 07:40 | -22.82844 | 120.06303 | 34038 ft | 422 kts | 209° |
| 2026-05-06 07:41 | -22.88257 | 120.03931 | 34041 ft | 422 kts | 209° |
| 2026-05-06 07:41 | -22.93713 | 120.01549 | 34044 ft | 422 kts | 209° |
| 2026-05-06 07:42 | -22.99174 | 119.99162 | 34052 ft | 423 kts | 209° |
| 2026-05-06 07:42 | -23.04633 | 119.96767 | 34059 ft | 423 kts | 208° |
| 2026-05-06 07:43 | -23.10073 | 119.94381 | 34062 ft | 423 kts | 208° |
| 2026-05-06 07:43 | -23.15578 | 119.91977 | 34065 ft | 424 kts | 208° |
| 2026-05-06 07:44 | -23.21050 | 119.89574 | 34074 ft | 424 kts | 208° |
| 2026-05-06 07:44 | -23.26485 | 119.87177 | 34074 ft | 425 kts | 208° |
| 2026-05-06 07:45 | -23.31968 | 119.84767 | 34079 ft | 425 kts | 208° |
| 2026-05-06 07:45 | -23.37453 | 119.82364 | 34076 ft | 425 kts | 208° |
| 2026-05-06 07:46 | -23.42936 | 119.79946 | 34088 ft | 426 kts | 208° |
| 2026-05-06 07:46 | -23.48466 | 119.77603 | 34091 ft | 427 kts | 207° |
| 2026-05-06 07:47 | -23.54034 | 119.75317 | 34095 ft | 427 kts | 207° |
| 2026-05-06 07:47 | -23.59600 | 119.73022 | 34095 ft | 427 kts | 207° |
| 2026-05-06 07:48 | -23.65157 | 119.70703 | 34100 ft | 428 kts | 207° |
| 2026-05-06 07:48 | -23.70711 | 119.68370 | 34101 ft | 428 kts | 207° |
| 2026-05-06 07:49 | -23.76243 | 119.66051 | 34103 ft | 428 kts | 207° |
| 2026-05-06 07:49 | -23.81815 | 119.63726 | 34104 ft | 429 kts | 207° |
| 2026-05-06 07:50 | -23.87388 | 119.61387 | 34111 ft | 429 kts | 207° |
| 2026-05-06 07:50 | -23.92959 | 119.59044 | 34109 ft | 429 kts | 207° |
| 2026-05-06 07:51 | -23.98534 | 119.56709 | 34114 ft | 429 kts | 207° |
| 2026-05-06 07:51 | -24.04102 | 119.54369 | 34117 ft | 429 kts | 207° |
| 2026-05-06 07:52 | -24.09670 | 119.52020 | 34116 ft | 429 kts | 206° |
| 2026-05-06 07:52 | -24.15232 | 119.49670 | 34113 ft | 428 kts | 206° |
| 2026-05-06 07:53 | -24.20766 | 119.47340 | 34115 ft | 429 kts | 206° |
| 2026-05-06 07:53 | -24.26337 | 119.45001 | 34119 ft | 429 kts | 206° |
| 2026-05-06 07:54 | -24.31911 | 119.42653 | 34119 ft | 429 kts | 206° |
| 2026-05-06 07:54 | -24.37477 | 119.40295 | 34126 ft | 429 kts | 206° |
| 2026-05-06 07:55 | -24.43052 | 119.37929 | 34133 ft | 429 kts | 206° |
| 2026-05-06 07:55 | -24.48630 | 119.35569 | 34134 ft | 430 kts | 206° |
| 2026-05-06 07:56 | -24.54202 | 119.33197 | 34143 ft | 429 kts | 206° |
| 2026-05-06 07:56 | -24.59789 | 119.30831 | 34137 ft | 430 kts | 206° |
| 2026-05-06 07:57 | -24.65372 | 119.28465 | 34141 ft | 430 kts | 206° |
| 2026-05-06 07:57 | -24.70951 | 119.26094 | 34140 ft | 430 kts | 206° |
| 2026-05-06 07:58 | -24.76484 | 119.23737 | 34138 ft | 429 kts | 206° |
| 2026-05-06 07:58 | -24.82056 | 119.21357 | 34142 ft | 429 kts | 206° |
| 2026-05-06 07:59 | -24.87629 | 119.18978 | 34142 ft | 430 kts | 206° |
| 2026-05-06 07:59 | -24.93207 | 119.16591 | 34150 ft | 430 kts | 206° |
| 2026-05-06 08:00 | -24.98797 | 119.14207 | 34151 ft | 430 kts | 206° |
| 2026-05-06 08:00 | -25.04379 | 119.11828 | 34152 ft | 430 kts | 206° |
| 2026-05-06 08:01 | -25.09963 | 119.09439 | 34154 ft | 430 kts | 206° |
| 2026-05-06 08:01 | -25.15546 | 119.07044 | 34151 ft | 430 kts | 206° |
| 2026-05-06 08:02 | -25.21134 | 119.04648 | 34156 ft | 431 kts | 206° |
| 2026-05-06 08:02 | -25.26720 | 119.02255 | 34156 ft | 431 kts | 206° |
| 2026-05-06 08:03 | -25.32265 | 118.99862 | 34157 ft | 431 kts | 206° |
| 2026-05-06 08:03 | -25.37845 | 118.97459 | 34166 ft | 431 kts | 205° |
| 2026-05-06 08:04 | -25.43440 | 118.95051 | 34162 ft | 431 kts | 205° |
| 2026-05-06 08:04 | -25.49028 | 118.92640 | 34166 ft | 431 kts | 205° |
| 2026-05-06 08:05 | -25.54621 | 118.90228 | 34173 ft | 431 kts | 205° |
| 2026-05-06 08:05 | -25.60214 | 118.87817 | 34170 ft | 431 kts | 205° |
| 2026-05-06 08:06 | -25.65771 | 118.85419 | 34165 ft | 431 kts | 205° |
| 2026-05-06 08:06 | -25.71358 | 118.82992 | 34164 ft | 431 kts | 205° |
| 2026-05-06 08:07 | -25.76952 | 118.80566 | 34165 ft | 431 kts | 205° |
| 2026-05-06 08:07 | -25.82548 | 118.78144 | 34165 ft | 432 kts | 205° |
| 2026-05-06 08:08 | -25.88146 | 118.75713 | 34169 ft | 432 kts | 205° |
| 2026-05-06 08:08 | -25.93753 | 118.73271 | 34175 ft | 432 kts | 205° |
| 2026-05-06 08:09 | -25.99327 | 118.70855 | 34181 ft | 433 kts | 205° |
| 2026-05-06 08:09 | -26.04935 | 118.68415 | 34181 ft | 433 kts | 205° |
| 2026-05-06 08:10 | -26.10547 | 118.65958 | 34190 ft | 433 kts | 205° |
| 2026-05-06 08:10 | -26.16163 | 118.63507 | 34195 ft | 434 kts | 205° |
| 2026-05-06 08:11 | -26.21778 | 118.61051 | 34198 ft | 434 kts | 205° |
| 2026-05-06 08:11 | -26.27401 | 118.58597 | 34201 ft | 434 kts | 205° |
| 2026-05-06 08:12 | -26.33026 | 118.56142 | 34208 ft | 434 kts | 205° |
| 2026-05-06 08:12 | -26.38655 | 118.53673 | 34213 ft | 435 kts | 205° |
| 2026-05-06 08:13 | -26.44287 | 118.51201 | 34218 ft | 435 kts | 205° |
| 2026-05-06 08:13 | -26.49914 | 118.48729 | 34221 ft | 435 kts | 205° |
| 2026-05-06 08:14 | -26.55506 | 118.46268 | 34222 ft | 435 kts | 205° |
| 2026-05-06 08:14 | -26.61128 | 118.43790 | 34227 ft | 435 kts | 205° |
| 2026-05-06 08:15 | -26.66754 | 118.41311 | 34230 ft | 434 kts | 205° |
| 2026-05-06 08:15 | -26.71469 | 118.39230 | 34230 ft | 435 kts | 205° |
| 2026-05-06 08:16 | -26.78005 | 118.36342 | 34235 ft | 435 kts | 205° |
| 2026-05-06 08:16 | -26.82727 | 118.34260 | 34238 ft | 435 kts | 205° |
| 2026-05-06 08:17 | -26.88326 | 118.31791 | 34238 ft | 435 kts | 205° |
| 2026-05-06 08:17 | -26.93956 | 118.29297 | 34239 ft | 435 kts | 205° |
| 2026-05-06 08:18 | -26.99584 | 118.26797 | 34244 ft | 435 kts | 205° |
| 2026-05-06 08:18 | -27.05216 | 118.24296 | 34247 ft | 435 kts | 205° |
| 2026-05-06 08:19 | -27.10840 | 118.21795 | 34250 ft | 435 kts | 204° |
| 2026-05-06 08:19 | -27.16460 | 118.19295 | 34248 ft | 435 kts | 204° |
| 2026-05-06 08:20 | -27.22090 | 118.16791 | 34248 ft | 435 kts | 204° |
| 2026-05-06 08:20 | -27.27725 | 118.14285 | 34246 ft | 435 kts | 204° |
| 2026-05-06 08:21 | -27.33344 | 118.11775 | 34249 ft | 435 kts | 204° |
| 2026-05-06 08:21 | -27.38929 | 118.09286 | 34251 ft | 435 kts | 204° |
| 2026-05-06 08:22 | -27.44564 | 118.06771 | 34249 ft | 435 kts | 204° |
| 2026-05-06 08:22 | -27.50191 | 118.04246 | 34258 ft | 435 kts | 204° |
| 2026-05-06 08:23 | -27.55827 | 118.01719 | 34261 ft | 435 kts | 204° |
| 2026-05-06 08:23 | -27.61455 | 117.99193 | 34261 ft | 435 kts | 204° |
| 2026-05-06 08:24 | -27.67092 | 117.96668 | 34264 ft | 435 kts | 204° |
| 2026-05-06 08:24 | -27.72713 | 117.94131 | 34266 ft | 435 kts | 204° |
| 2026-05-06 08:25 | -27.78340 | 117.91594 | 34267 ft | 435 kts | 204° |
| 2026-05-06 08:25 | -27.83977 | 117.89057 | 34273 ft | 436 kts | 204° |
| 2026-05-06 08:26 | -27.89602 | 117.86524 | 34271 ft | 436 kts | 204° |
| 2026-05-06 08:26 | -27.95239 | 117.83979 | 34273 ft | 436 kts | 204° |
| 2026-05-06 08:27 | -28.00862 | 117.81423 | 34276 ft | 436 kts | 204° |
| 2026-05-06 08:27 | -28.06453 | 117.78889 | 34277 ft | 436 kts | 204° |
| 2026-05-06 08:28 | -28.12085 | 117.76346 | 34279 ft | 436 kts | 204° |
| 2026-05-06 08:28 | -28.17714 | 117.73786 | 34280 ft | 436 kts | 204° |
| 2026-05-06 08:29 | -28.23340 | 117.71226 | 34279 ft | 436 kts | 204° |
| 2026-05-06 08:29 | -28.28975 | 117.68658 | 34282 ft | 436 kts | 204° |
| 2026-05-06 08:30 | -28.34601 | 117.66086 | 34286 ft | 436 kts | 204° |
| 2026-05-06 08:30 | -28.40231 | 117.63526 | 34283 ft | 436 kts | 204° |
| 2026-05-06 08:31 | -28.45859 | 117.60963 | 34286 ft | 436 kts | 204° |
| 2026-05-06 08:31 | -28.51486 | 117.58391 | 34286 ft | 436 kts | 204° |
| 2026-05-06 08:32 | -28.57122 | 117.55810 | 34288 ft | 436 kts | 204° |
| 2026-05-06 08:32 | -28.62751 | 117.53235 | 34281 ft | 436 kts | 204° |
| 2026-05-06 08:33 | -28.68377 | 117.50657 | 34286 ft | 436 kts | 204° |
| 2026-05-06 08:33 | -28.73972 | 117.48091 | 34289 ft | 436 kts | 204° |
| 2026-05-06 08:34 | -28.82414 | 117.44211 | 34291 ft | 436 kts | 204° |
| 2026-05-06 08:35 | -28.88037 | 117.41617 | 34291 ft | 436 kts | 204° |
| 2026-05-06 08:35 | -28.93664 | 117.39032 | 34298 ft | 436 kts | 204° |
| 2026-05-06 08:36 | -28.99288 | 117.36442 | 34298 ft | 436 kts | 204° |
| 2026-05-06 08:36 | -29.04903 | 117.33836 | 34297 ft | 436 kts | 204° |
| 2026-05-06 08:37 | -29.10523 | 117.31234 | 34298 ft | 436 kts | 204° |
| 2026-05-06 08:37 | -29.16146 | 117.28637 | 34303 ft | 436 kts | 204° |
| 2026-05-06 08:38 | -29.21765 | 117.26035 | 34301 ft | 436 kts | 204° |
| 2026-05-06 08:38 | -29.27351 | 117.23449 | 34303 ft | 436 kts | 204° |
| 2026-05-06 08:39 | -29.32972 | 117.20836 | 34307 ft | 436 kts | 204° |
| 2026-05-06 08:39 | -29.38587 | 117.18219 | 34320 ft | 436 kts | 204° |
| 2026-05-06 08:40 | -29.44178 | 117.15616 | 34313 ft | 436 kts | 204° |
| 2026-05-06 08:40 | -29.49793 | 117.13000 | 34315 ft | 436 kts | 204° |
| 2026-05-06 08:41 | -29.55413 | 117.10388 | 34319 ft | 436 kts | 204° |
| 2026-05-06 08:41 | -29.61034 | 117.07765 | 34317 ft | 436 kts | 204° |
| 2026-05-06 08:42 | -29.66650 | 117.05129 | 34320 ft | 436 kts | 204° |
| 2026-05-06 08:42 | -29.72268 | 117.02491 | 34323 ft | 436 kts | 204° |
| 2026-05-06 08:43 | -29.77858 | 116.99862 | 34322 ft | 436 kts | 204° |
| 2026-05-06 08:43 | -29.83482 | 116.97220 | 34322 ft | 436 kts | 203° |
| 2026-05-06 08:44 | -29.89104 | 116.94591 | 34336 ft | 436 kts | 203° |
| 2026-05-06 08:44 | -29.94733 | 116.91946 | 34335 ft | 436 kts | 203° |
| 2026-05-06 08:45 | -30.00352 | 116.89293 | 34336 ft | 437 kts | 203° |
| 2026-05-06 08:45 | -30.05973 | 116.86632 | 34334 ft | 437 kts | 203° |
| 2026-05-06 08:46 | -30.11596 | 116.83969 | 34339 ft | 437 kts | 203° |
| 2026-05-06 08:46 | -30.17225 | 116.81314 | 34342 ft | 437 kts | 203° |
| 2026-05-06 08:47 | -30.22853 | 116.78657 | 34348 ft | 437 kts | 203° |
| 2026-05-06 08:47 | -30.28438 | 116.76008 | 34349 ft | 437 kts | 203° |
| 2026-05-06 08:48 | -30.34060 | 116.73328 | 34355 ft | 437 kts | 203° |
| 2026-05-06 08:48 | -30.39717 | 116.70622 | 34357 ft | 437 kts | 203° |
| 2026-05-06 08:48 | -30.42531 | 116.69282 | 33948 ft | 438 kts | 203° |
| 2026-05-06 08:49 | -30.45340 | 116.67949 | 32888 ft | 444 kts | 202° |
| 2026-05-06 08:49 | -30.48207 | 116.66588 | 32012 ft | 446 kts | 202° |
| 2026-05-06 08:49 | -30.51074 | 116.65222 | 31169 ft | 447 kts | 202° |
| 2026-05-06 08:49 | -30.53962 | 116.63842 | 30111 ft | 451 kts | 202° |
| 2026-05-06 08:50 | -30.56886 | 116.62488 | 29038 ft | 453 kts | 200° |
| 2026-05-06 08:50 | -30.59836 | 116.61266 | 28440 ft | 446 kts | 198° |
| 2026-05-06 08:50 | -30.62764 | 116.60144 | 27783 ft | 441 kts | 198° |
| 2026-05-06 08:50 | -30.65669 | 116.59074 | 27124 ft | 436 kts | 197° |
| 2026-05-06 08:51 | -30.68550 | 116.58015 | 26469 ft | 432 kts | 197° |
| 2026-05-06 08:51 | -30.71399 | 116.56950 | 25823 ft | 429 kts | 198° |
| 2026-05-06 08:51 | -30.74226 | 116.55870 | 25179 ft | 426 kts | 198° |
| 2026-05-06 08:51 | -30.77029 | 116.54781 | 24539 ft | 423 kts | 198° |
| 2026-05-06 08:52 | -30.79811 | 116.53687 | 23897 ft | 421 kts | 199° |
| 2026-05-06 08:52 | -30.82578 | 116.52596 | 23201 ft | 418 kts | 198° |
| 2026-05-06 08:52 | -30.85315 | 116.51522 | 22603 ft | 413 kts | 198° |
| 2026-05-06 08:52 | -30.88019 | 116.50461 | 22005 ft | 408 kts | 198° |
| 2026-05-06 08:53 | -30.90697 | 116.49413 | 21436 ft | 404 kts | 198° |
| 2026-05-06 08:53 | -30.93347 | 116.48377 | 20880 ft | 400 kts | 198° |
| 2026-05-06 08:53 | -30.95975 | 116.47350 | 20338 ft | 397 kts | 198° |
| 2026-05-06 08:53 | -30.98584 | 116.46332 | 19812 ft | 394 kts | 198° |
| 2026-05-06 08:54 | -31.01177 | 116.45318 | 19288 ft | 392 kts | 198° |
| 2026-05-06 08:54 | -31.03758 | 116.44305 | 18763 ft | 390 kts | 198° |
| 2026-05-06 08:54 | -31.06328 | 116.43298 | 18183 ft | 389 kts | 197° |
| 2026-05-06 08:54 | -31.08852 | 116.42308 | 17653 ft | 385 kts | 197° |
| 2026-05-06 08:55 | -31.11382 | 116.41315 | 17105 ft | 382 kts | 197° |
| 2026-05-06 08:55 | -31.13894 | 116.40327 | 16552 ft | 379 kts | 197° |
| 2026-05-06 08:55 | -31.16382 | 116.39347 | 15992 ft | 376 kts | 197° |
| 2026-05-06 08:55 | -31.18854 | 116.38376 | 15430 ft | 373 kts | 197° |
| 2026-05-06 08:56 | -31.21303 | 116.37416 | 14861 ft | 371 kts | 197° |
| 2026-05-06 08:56 | -31.23744 | 116.36457 | 14297 ft | 368 kts | 197° |
| 2026-05-06 08:56 | -31.26168 | 116.35503 | 13674 ft | 366 kts | 197° |
| 2026-05-06 08:56 | -31.28569 | 116.34558 | 13105 ft | 362 kts | 197° |
| 2026-05-06 08:57 | -31.30940 | 116.33623 | 12517 ft | 358 kts | 197° |
| 2026-05-06 08:57 | -31.33322 | 116.32685 | 11627 ft | 364 kts | 197° |
| 2026-05-06 08:57 | -31.35687 | 116.31751 | 11032 ft | 362 kts | 197° |
| 2026-05-06 08:57 | -31.38055 | 116.30816 | 10686 ft | 353 kts | 197° |
| 2026-05-06 08:58 | -31.40330 | 116.29914 | 10565 ft | 337 kts | 197° |
| 2026-05-06 08:58 | -31.42454 | 116.28877 | 10449 ft | 325 kts | 206° |
| 2026-05-06 08:58 | -31.44405 | 116.27626 | 10323 ft | 313 kts | 207° |
| 2026-05-06 08:58 | -31.46287 | 116.26422 | 10202 ft | 303 kts | 207° |
| 2026-05-06 08:59 | -31.48106 | 116.25259 | 10030 ft | 294 kts | 207° |
| 2026-05-06 08:59 | -31.49883 | 116.24122 | 9836 ft | 289 kts | 206° |
| 2026-05-06 08:59 | -31.51671 | 116.22980 | 9376 ft | 293 kts | 206° |
| 2026-05-06 08:59 | -31.53446 | 116.21841 | 9068 ft | 289 kts | 206° |
| 2026-05-06 09:00 | -31.54608 | 116.21096 | 8696 ft | 287 kts | 206° |
| 2026-05-06 09:00 | -31.56928 | 116.19609 | 7825 ft | 286 kts | 206° |
| 2026-05-06 09:00 | -31.58673 | 116.18492 | 7231 ft | 284 kts | 206° |
| 2026-05-06 09:00 | -31.60270 | 116.17471 | 6824 ft | 278 kts | 206° |
| 2026-05-06 09:01 | -31.61396 | 116.16749 | 6745 ft | 271 kts | 206° |
| 2026-05-06 09:01 | -31.63542 | 116.15372 | 6543 ft | 261 kts | 205° |
| 2026-05-06 09:01 | -31.65120 | 116.14361 | 6320 ft | 257 kts | 205° |
| 2026-05-06 09:01 | -31.66194 | 116.13676 | 5981 ft | 262 kts | 205° |
| 2026-05-06 09:02 | -31.67776 | 116.12664 | 5519 ft | 259 kts | 205° |
| 2026-05-06 09:02 | -31.69326 | 116.11672 | 5082 ft | 254 kts | 205° |
| 2026-05-06 09:02 | -31.70872 | 116.10680 | 4580 ft | 253 kts | 205° |
| 2026-05-06 09:02 | -31.72413 | 116.09687 | 4041 ft | 252 kts | 205° |
| 2026-05-06 09:03 | -31.73945 | 116.08698 | 3541 ft | 250 kts | 205° |
| 2026-05-06 09:03 | -31.75364 | 116.07540 | 3166 ft | 247 kts | 220° |
| 2026-05-06 09:03 | -31.76448 | 116.06038 | 3047 ft | 236 kts | 231° |
| 2026-05-06 09:03 | -31.77418 | 116.04526 | 2914 ft | 226 kts | 230° |
| 2026-05-06 09:04 | -31.78351 | 116.03086 | 2819 ft | 216 kts | 229° |
| 2026-05-06 09:04 | -31.79257 | 116.01712 | 2719 ft | 211 kts | 225° |
| 2026-05-06 09:04 | -31.80371 | 116.00643 | 2534 ft | 204 kts | 204° |
| 2026-05-06 09:04 | -31.81681 | 116.00094 | 2298 ft | 199 kts | 189° |
| 2026-05-06 09:05 | -31.83007 | 115.99711 | 2046 ft | 198 kts | 189° |
| 2026-05-06 09:05 | -31.84325 | 115.99327 | 1819 ft | 189 kts | 189° |
| 2026-05-06 09:05 | -31.85571 | 115.98964 | 1538 ft | 180 kts | 188° |
| 2026-05-06 09:05 | -31.86758 | 115.98620 | 1266 ft | 171 kts | 189° |
| 2026-05-06 09:06 | -31.87867 | 115.98294 | 1045 ft | 159 kts | 189° |
| 2026-05-06 09:06 | -31.88899 | 115.97992 | 836 ft | 148 kts | 188° |
| 2026-05-06 09:06 | -31.89880 | 115.97711 | 718 ft | 143 kts | 187° |
| 2026-05-06 09:06 | -31.90836 | 115.97435 | 489 ft | 140 kts | 188° |
| 2026-05-06 09:07 | -31.91779 | 115.97158 | 315 ft | 140 kts | 188° |
| 2026-05-06 09:07 | -31.92708 | 115.96897 | 160 ft | 137 kts | 189° |
| 2026-05-06 09:07 | -31.93535 | 115.96664 | 64 ft | 119 kts | 190° |
| 2026-05-06 09:07 | -31.94171 | 115.96467 | 65 ft | 70 kts | 194° |
| 2026-05-06 09:08 | -31.94507 | 115.96369 | 65 ft | 32 kts | 193° |
| 2026-05-06 09:08 | -31.94610 | 115.96275 | 65 ft | 17 kts | 262° |
| 2026-05-06 09:08 | -31.94590 | 115.96155 | 61 ft | 11 kts | 297° |
| 2026-05-06 09:08 | -31.94524 | 115.96123 | 66 ft | 11 kts | 13° |
| 2026-05-06 09:09 | -31.94453 | 115.96146 | 63 ft | 10 kts | 13° |
| 2026-05-06 09:09 | -31.94384 | 115.96166 | 65 ft | 10 kts | 14° |
| 2026-05-06 09:09 | -31.94317 | 115.96186 | 63 ft | 10 kts | 14° |
| 2026-05-06 09:09 | -31.94250 | 115.96205 | 59 ft | 11 kts | 14° |
| 2026-05-06 09:10 | -31.94153 | 115.96234 | 61 ft | 16 kts | 14° |
| 2026-05-06 09:10 | -31.94045 | 115.96266 | 63 ft | 16 kts | 13° |
| 2026-05-06 09:10 | -31.93931 | 115.96298 | 68 ft | 18 kts | 15° |
| 2026-05-06 09:10 | -31.93798 | 115.96336 | 65 ft | 21 kts | 13° |
| 2026-05-06 09:11 | -31.93654 | 115.96379 | 64 ft | 22 kts | 14° |
| 2026-05-06 09:11 | -31.93529 | 115.96414 | 61 ft | 11 kts | 14° |
| 2026-05-06 09:11 | -31.93448 | 115.96406 | 63 ft | 13 kts | 320° |
| 2026-05-06 09:11 | -31.93384 | 115.96325 | 62 ft | 15 kts | 333° |
| 2026-05-06 09:12 | -31.93283 | 115.96330 | 64 ft | 11 kts | 9° |
| 2026-05-06 09:12 | -31.93221 | 115.96285 | 65 ft | 11 kts | 298° |
| 2026-05-06 09:12 | -31.93181 | 115.96219 | 64 ft | 9 kts | 314° |
| 2026-05-06 09:12 | -31.93194 | 115.96187 | 66 ft | 4 kts | 226° |
| 2026-05-06 09:13 | -31.93203 | 115.96151 | 65 ft | 6 kts | 252° |
| 2026-05-06 09:13 | -31.93214 | 115.96142 | 65 ft | 1 kts | 201° |